createdAt,value
2023-03-25T00:02:09.803Z,5.47
2023-03-25T00:04:55.133Z,4.38
2023-03-25T00:07:41.701Z,5.43
2023-03-25T00:10:27.494Z,6.22
2023-03-25T00:13:13.882Z,7.40
2023-03-25T00:15:59.317Z,4.82
2023-03-25T00:18:48.028Z,5.57
2023-03-25T00:21:34.493Z,4.97
2023-03-25T00:24:20.308Z,2.35
2023-03-25T00:27:05.992Z,5.88
2023-03-25T00:29:51.360Z,4.75
2023-03-25T00:32:36.866Z,5.57
2023-03-25T00:35:24.295Z,8.13
2023-03-25T00:38:09.944Z,4.15
2023-03-25T00:40:55.628Z,13.43
2023-03-25T00:43:41.144Z,9.85
2023-03-25T00:46:29.663Z,12.57
2023-03-25T00:49:15.512Z,10.07
2023-03-25T00:52:01.884Z,10.50
2023-03-25T00:54:47.203Z,5.60
2023-03-25T00:57:33.207Z,11.93
2023-03-25T01:00:19.704Z,3.42
2023-03-25T01:03:05.186Z,4.90
2023-03-25T01:05:54.808Z,3.05
2023-03-25T01:08:42.005Z,9.77
2023-03-25T01:11:30.223Z,5.85
2023-03-25T01:14:19.302Z,10.90
2023-03-25T01:17:05.119Z,4.32
2023-03-25T01:19:50.910Z,9.77
2023-03-25T01:22:36.665Z,7.10
2023-03-25T01:25:22.198Z,5.63
2023-03-25T01:28:07.450Z,5.32
2023-03-25T01:31:11.367Z,2.97
2023-03-25T01:33:57.698Z,4.97
2023-03-25T01:36:46.597Z,4.20
2023-03-25T01:39:32.353Z,9.05
2023-03-25T01:42:17.785Z,3.90
2023-03-25T01:45:21.452Z,4.75
2023-03-25T01:48:33.175Z,3.75
2023-03-25T01:51:23.174Z,1.92
2023-03-25T01:54:09.484Z,4.07
2023-03-25T01:56:56.175Z,8.32
2023-03-25T01:59:42.315Z,6.35
2023-03-25T02:02:35.114Z,5.20
2023-03-25T02:05:33.823Z,9.10
2023-03-25T02:08:20.873Z,1.85
2023-03-25T02:11:07.326Z,7.03
2023-03-25T02:13:53.185Z,3.70
2023-03-25T02:16:51.089Z,2.88
2023-03-25T02:20:06.964Z,9.57
2023-03-25T02:23:16.996Z,4.95
2023-03-25T02:26:17.601Z,6.20
2023-03-25T02:29:09.022Z,3.60
2023-03-25T02:32:31.618Z,5.07
2023-03-25T02:35:43.911Z,7.68
2023-03-25T02:38:29.064Z,4.00
2023-03-25T02:41:35.074Z,6.45
2023-03-25T02:44:23.968Z,4.43
2023-03-25T02:47:15.817Z,0.43
2023-03-25T02:50:07.883Z,3.97
2023-03-25T02:53:00.054Z,5.00
2023-03-25T02:55:48.107Z,2.70
2023-03-25T02:58:34.238Z,3.55
2023-03-25T03:01:22.885Z,1.65
2023-03-25T03:04:08.783Z,7.68
2023-03-25T03:06:56.667Z,1.40
2023-03-25T03:09:49.408Z,4.85
2023-03-25T03:12:45.977Z,8.75
2023-03-25T03:16:00.139Z,2.00
2023-03-25T03:19:25.771Z,8.57
2023-03-25T03:22:30.253Z,2.05
2023-03-25T03:25:36.887Z,5.72
2023-03-25T03:28:33.663Z,5.43
2023-03-25T03:31:56.586Z,6.05
2023-03-25T03:34:55.022Z,3.30
2023-03-25T03:37:46.089Z,5.85
2023-03-25T03:40:33.327Z,5.63
2023-03-25T03:43:25.114Z,6.78
2023-03-25T03:46:19.840Z,5.53
2023-03-25T03:49:10.973Z,3.35
2023-03-25T03:52:09.090Z,6.17
2023-03-25T03:55:00.818Z,12.73
2023-03-25T03:57:58.962Z,4.28
2023-03-25T04:00:50.370Z,5.55
2023-03-25T04:03:46.516Z,7.28
2023-03-25T04:06:42.210Z,4.05
2023-03-25T04:09:40.969Z,8.35
2023-03-25T04:12:30.086Z,11.95
2023-03-25T04:15:16.274Z,11.00
2023-03-25T04:18:03.772Z,1.35
2023-03-25T04:20:49.832Z,3.20
2023-03-25T04:23:37.882Z,8.07
2023-03-25T04:26:23.671Z,5.60
2023-03-25T04:29:10.134Z,9.73
2023-03-25T04:31:56.942Z,2.25
2023-03-25T04:34:42.508Z,1.27
2023-03-25T04:37:28.664Z,3.00
2023-03-25T04:40:21.950Z,5.78
2023-03-25T04:43:07.680Z,5.63
2023-03-25T04:45:57.731Z,3.83
2023-03-25T04:48:45.180Z,3.78
2023-03-25T04:51:30.512Z,4.60
2023-03-25T04:54:18.220Z,6.80
2023-03-25T04:57:04.376Z,5.82
2023-03-25T04:59:49.594Z,4.03
2023-03-25T05:02:35.033Z,5.22
2023-03-25T05:05:23.698Z,6.82
2023-03-25T05:08:10.025Z,7.40
2023-03-25T05:10:55.606Z,7.32
2023-03-25T05:13:41.000Z,8.05
2023-03-25T05:16:26.864Z,4.30
2023-03-25T05:19:14.825Z,4.00
2023-03-25T05:22:02.283Z,11.07
2023-03-25T05:24:47.823Z,7.03
2023-03-25T05:27:34.431Z,6.68
2023-03-25T05:30:20.019Z,6.63
2023-03-25T05:33:06.739Z,7.85
2023-03-25T05:35:52.599Z,3.35
2023-03-25T05:38:41.815Z,9.48
2023-03-25T05:41:39.070Z,7.47
2023-03-25T05:44:24.338Z,4.00
2023-03-25T05:47:09.716Z,8.10
2023-03-25T05:49:55.105Z,13.90
2023-03-25T05:52:41.994Z,12.38
2023-03-25T05:55:28.299Z,8.18
2023-03-25T05:58:13.934Z,8.48
2023-03-25T06:01:05.502Z,11.18
2023-03-25T06:03:51.021Z,6.33
2023-03-25T06:06:36.617Z,9.00
2023-03-25T06:09:21.909Z,17.55
2023-03-25T06:12:07.933Z,8.02
2023-03-25T06:14:56.785Z,9.90
2023-03-25T06:17:42.813Z,12.43
2023-03-25T06:20:28.538Z,11.23
2023-03-25T06:23:14.020Z,12.63
2023-03-25T06:25:59.671Z,8.63
2023-03-25T06:28:46.199Z,7.97
2023-03-25T06:31:34.150Z,11.23
2023-03-25T06:34:22.554Z,4.97
2023-03-25T06:37:09.881Z,13.98
2023-03-25T06:39:56.675Z,17.13
2023-03-25T06:42:44.231Z,10.38
2023-03-25T06:45:44.977Z,9.82
2023-03-25T06:48:41.021Z,4.93
2023-03-25T06:51:27.314Z,8.50
2023-03-25T06:54:13.131Z,6.85
2023-03-25T06:56:58.550Z,3.47
2023-03-25T06:59:43.932Z,3.45
2023-03-25T07:02:29.264Z,5.85
2023-03-25T07:05:14.999Z,6.90
2023-03-25T07:08:00.503Z,8.68
2023-03-25T07:10:46.117Z,9.40
2023-03-25T07:13:31.745Z,8.43
2023-03-25T07:16:17.387Z,4.68
2023-03-25T07:19:02.768Z,5.70
2023-03-25T07:21:48.281Z,4.15
2023-03-25T07:24:33.887Z,5.65
2023-03-25T07:27:19.375Z,10.30
2023-03-25T07:30:14.490Z,8.23
2023-03-25T07:33:00.070Z,6.63
2023-03-25T07:35:46.131Z,4.97
2023-03-25T07:38:31.728Z,2.03
2023-03-25T07:41:17.003Z,8.65
2023-03-25T07:44:20.435Z,5.65
2023-03-25T07:47:08.468Z,4.22
2023-03-25T07:49:53.780Z,6.13
2023-03-25T07:52:39.306Z,9.77
2023-03-25T07:55:24.700Z,4.25
2023-03-25T07:58:10.152Z,7.80
2023-03-25T08:00:58.046Z,3.90
2023-03-25T08:03:43.388Z,9.60
2023-03-25T08:06:28.624Z,3.15
2023-03-25T08:09:14.051Z,7.55
2023-03-25T08:11:59.301Z,3.15
2023-03-25T08:14:44.735Z,5.07
2023-03-25T08:17:30.547Z,6.13
2023-03-25T08:20:16.090Z,5.43
2023-03-25T08:23:03.032Z,5.63
2023-03-25T08:25:50.450Z,5.70
2023-03-25T08:28:36.504Z,4.18
2023-03-25T08:31:22.355Z,4.97
2023-03-25T08:34:07.662Z,9.60
2023-03-25T08:36:53.043Z,10.93
2023-03-25T08:39:40.302Z,5.38
2023-03-25T08:42:26.033Z,9.80
2023-03-25T08:45:12.050Z,9.80
2023-03-25T08:47:57.546Z,6.32
2023-03-25T08:50:43.355Z,10.00
2023-03-25T08:53:28.850Z,8.55
2023-03-25T08:56:14.707Z,5.85
2023-03-25T08:59:00.409Z,8.35
2023-03-25T09:01:45.776Z,7.15
2023-03-25T09:04:31.340Z,10.93
2023-03-25T09:07:19.879Z,6.00
2023-03-25T09:10:07.606Z,6.30
2023-03-25T09:12:52.934Z,2.65
2023-03-25T09:15:38.284Z,5.95
2023-03-25T09:18:23.488Z,9.40
2023-03-25T09:21:09.113Z,19.83
2023-03-25T09:23:54.750Z,3.78
2023-03-25T09:26:40.884Z,4.47
2023-03-25T09:29:26.627Z,4.65
2023-03-25T09:32:12.348Z,7.82
2023-03-25T09:34:57.882Z,7.68
2023-03-25T09:37:43.752Z,3.30
2023-03-25T09:40:29.318Z,7.22
2023-03-25T09:43:29.798Z,5.65
2023-03-25T09:46:16.089Z,7.78
2023-03-25T09:49:02.658Z,5.10
2023-03-25T09:51:51.135Z,5.45
2023-03-25T09:54:43.569Z,9.30
2023-03-25T09:57:33.412Z,7.00
2023-03-25T10:00:26.031Z,6.10
2023-03-25T10:03:14.482Z,7.43
2023-03-25T10:06:18.883Z,10.15
2023-03-25T10:09:25.280Z,3.45
2023-03-25T10:12:32.786Z,8.30
2023-03-25T10:15:18.225Z,9.43
2023-03-25T10:18:22.385Z,4.13
2023-03-25T10:21:52.270Z,7.10
2023-03-25T10:24:48.790Z,6.50
2023-03-25T10:27:39.850Z,1.55
2023-03-25T10:30:31.367Z,1.30
2023-03-25T10:33:39.856Z,4.45
2023-03-25T10:36:38.414Z,11.70
2023-03-25T10:39:25.751Z,4.38
2023-03-25T10:42:32.156Z,6.07
2023-03-25T10:45:18.693Z,6.05
2023-03-25T10:48:22.426Z,5.50
2023-03-25T10:51:13.851Z,2.92
2023-03-25T10:54:00.490Z,5.47
2023-03-25T10:56:51.506Z,9.45
2023-03-25T10:59:45.440Z,2.78
2023-03-25T11:02:32.297Z,2.88
2023-03-25T11:05:21.288Z,4.38
2023-03-25T11:08:22.189Z,6.65
2023-03-25T11:11:10.219Z,5.20
2023-03-25T11:13:57.450Z,2.72
2023-03-25T11:16:47.482Z,2.45
2023-03-25T11:19:53.289Z,4.07
2023-03-25T11:22:44.776Z,7.03
2023-03-25T11:25:33.153Z,4.53
2023-03-25T11:28:27.700Z,6.63
2023-03-25T11:31:18.462Z,6.88
2023-03-25T11:34:13.802Z,4.80
2023-03-25T11:36:58.916Z,3.20
2023-03-25T11:39:55.501Z,47.05
2023-03-25T11:42:43.835Z,62.08
2023-03-25T11:45:37.800Z,13.73
2023-03-25T11:48:30.463Z,70.70
2023-03-25T11:51:31.948Z,74.80
2023-03-25T11:54:18.968Z,12.65
2023-03-25T11:57:10.984Z,7.72
2023-03-25T12:00:15.016Z,4.38
2023-03-25T12:03:03.113Z,6.88
2023-03-25T12:06:11.748Z,4.78
2023-03-25T12:09:00.576Z,6.03
2023-03-25T12:11:56.999Z,5.80
2023-03-25T12:15:00.463Z,2.38
2023-03-25T12:18:06.209Z,3.33
2023-03-25T12:21:04.823Z,3.65
2023-03-25T12:24:12.002Z,3.55
2023-03-25T12:27:07.517Z,6.72
2023-03-25T12:30:17.327Z,3.78
2023-03-25T12:33:18.204Z,8.82
2023-03-25T12:36:20.399Z,3.17
2023-03-25T12:39:42.786Z,3.72
2023-03-25T12:42:59.934Z,4.75
2023-03-25T12:45:54.674Z,5.60
2023-03-25T12:48:53.695Z,5.10
2023-03-25T12:51:45.329Z,5.38
2023-03-25T12:54:59.001Z,5.43
2023-03-25T12:58:12.471Z,9.23
2023-03-25T13:01:13.704Z,6.60
2023-03-25T13:04:38.065Z,1.88
2023-03-25T13:07:36.788Z,2.65
2023-03-25T13:10:28.042Z,3.17
2023-03-25T13:13:19.753Z,4.05
2023-03-25T13:16:15.288Z,2.13
2023-03-25T13:19:06.830Z,3.60
2023-03-25T13:21:58.561Z,1.27
2023-03-25T13:24:51.559Z,0.50
2023-03-25T13:27:41.722Z,6.97
2023-03-25T13:30:42.407Z,3.47
2023-03-25T13:33:38.012Z,3.33
2023-03-25T13:36:32.220Z,2.83
2023-03-25T13:39:32.038Z,2.00
2023-03-25T13:42:43.193Z,1.38
2023-03-25T13:45:52.311Z,1.20
2023-03-25T13:48:49.431Z,0.40
2023-03-25T13:51:34.914Z,0.73
2023-03-25T13:54:22.560Z,1.25
2023-03-25T13:57:31.624Z,4.95
2023-03-25T14:00:41.835Z,2.95
2023-03-25T14:03:55.730Z,2.83
2023-03-25T14:06:50.026Z,2.35
2023-03-25T14:10:11.481Z,1.92
2023-03-25T14:13:02.161Z,2.53
2023-03-25T14:16:12.359Z,3.25
2023-03-25T14:19:10.162Z,1.58
2023-03-25T14:21:56.402Z,1.80
2023-03-25T14:24:42.826Z,2.20
2023-03-25T14:27:32.638Z,0.77
2023-03-25T14:30:28.186Z,3.38
2023-03-25T14:33:13.789Z,1.95
2023-03-25T14:35:59.653Z,0.90
2023-03-25T14:38:56.443Z,3.78
2023-03-25T14:42:00.433Z,2.13
2023-03-25T14:44:54.247Z,2.92
2023-03-25T14:47:52.821Z,0.80
2023-03-25T14:50:38.144Z,1.60
2023-03-25T14:53:23.860Z,3.15
2023-03-25T14:56:18.308Z,3.90
2023-03-25T14:59:10.589Z,2.22
2023-03-25T15:02:03.570Z,0.82
2023-03-25T15:04:56.401Z,3.10
2023-03-25T15:07:53.370Z,0.80
2023-03-25T15:10:42.378Z,1.38
2023-03-25T15:13:33.606Z,5.53
2023-03-25T15:16:38.198Z,1.20
2023-03-25T15:19:24.892Z,0.65
2023-03-25T15:22:20.057Z,4.10
2023-03-25T15:25:16.925Z,3.60
2023-03-25T15:28:26.267Z,11.27
2023-03-25T15:31:40.483Z,3.42
2023-03-25T15:34:44.876Z,1.98
2023-03-25T15:37:46.489Z,4.50
2023-03-25T15:40:41.173Z,1.88
2023-03-25T15:43:59.540Z,1.73
2023-03-25T15:47:13.794Z,5.13
2023-03-25T15:50:45.855Z,1.90
2023-03-25T15:53:41.724Z,2.40
2023-03-25T15:56:31.757Z,5.63
2023-03-25T15:59:38.808Z,4.35
2023-03-25T16:02:32.750Z,2.88
2023-03-25T16:05:20.182Z,2.00
2023-03-25T16:08:11.404Z,4.95
2023-03-25T16:10:57.038Z,5.90
2023-03-25T16:13:42.716Z,1.88
2023-03-25T16:16:34.599Z,3.85
2023-03-25T16:19:39.089Z,4.55
2023-03-25T16:22:32.963Z,4.53
2023-03-25T16:25:40.620Z,3.20
2023-03-25T16:28:39.646Z,4.60
2023-03-25T16:31:34.347Z,3.22
2023-03-25T16:34:20.471Z,6.68
2023-03-25T16:37:07.748Z,5.57
2023-03-25T16:39:55.823Z,3.63
2023-03-25T16:42:41.171Z,3.65
2023-03-25T16:45:26.922Z,3.35
2023-03-25T16:48:17.874Z,3.58
2023-03-25T16:51:21.787Z,6.45
2023-03-25T16:54:22.183Z,7.20
2023-03-25T16:57:09.080Z,9.32
2023-03-25T16:59:56.164Z,7.00
2023-03-25T17:02:42.068Z,4.38
2023-03-25T17:05:29.829Z,4.85
2023-03-25T17:08:18.452Z,3.92
2023-03-25T17:11:03.978Z,7.30
2023-03-25T17:13:52.400Z,4.82
2023-03-25T17:16:38.323Z,4.28
2023-03-25T17:19:27.430Z,4.60
2023-03-25T17:22:18.842Z,4.82
2023-03-25T17:25:25.340Z,3.65
2023-03-25T17:28:23.271Z,9.15
2023-03-25T17:31:28.222Z,4.40
2023-03-25T17:34:24.790Z,6.63
2023-03-25T17:37:12.654Z,3.88
2023-03-25T17:40:02.409Z,2.22
2023-03-25T17:42:48.514Z,11.50
2023-03-25T17:45:33.929Z,6.65
2023-03-25T17:48:19.382Z,7.75
2023-03-25T17:51:05.334Z,6.82
2023-03-25T17:53:51.507Z,5.93
2023-03-25T17:56:40.609Z,8.75
2023-03-25T17:59:26.965Z,8.80
2023-03-25T18:02:17.315Z,7.05
2023-03-25T18:05:06.370Z,8.45
2023-03-25T18:07:51.881Z,8.10
2023-03-25T18:10:38.550Z,9.73
2023-03-25T18:13:25.666Z,11.93
2023-03-25T18:16:10.920Z,9.60
2023-03-25T18:18:56.322Z,7.57
2023-03-25T18:21:42.327Z,6.32
2023-03-25T18:24:27.637Z,5.63
2023-03-25T18:27:14.364Z,6.55
2023-03-25T18:29:59.878Z,6.07
2023-03-25T18:32:45.569Z,10.65
2023-03-25T18:35:31.493Z,13.38
2023-03-25T18:38:24.412Z,12.70
2023-03-25T18:41:11.726Z,18.08
2023-03-25T18:43:57.112Z,19.20
2023-03-25T18:46:42.912Z,15.88
2023-03-25T18:49:29.139Z,13.15
2023-03-25T18:52:14.598Z,13.57
2023-03-25T18:54:59.815Z,14.85
2023-03-25T18:57:45.214Z,14.50
2023-03-25T19:00:40.535Z,19.08
2023-03-25T19:03:31.659Z,28.70
2023-03-25T19:06:18.973Z,29.88
2023-03-25T19:09:05.461Z,12.85
2023-03-25T19:11:50.830Z,12.60
2023-03-25T19:14:36.388Z,14.35
2023-03-25T19:17:22.017Z,17.30
2023-03-25T19:20:09.132Z,19.77
2023-03-25T19:22:54.567Z,42.20
2023-03-25T19:25:40.740Z,26.05
2023-03-25T19:28:26.711Z,32.55
2023-03-25T19:31:15.715Z,21.98
2023-03-25T19:34:01.599Z,17.38
2023-03-25T19:36:47.282Z,18.00
2023-03-25T19:39:32.630Z,18.25
2023-03-25T19:42:17.913Z,25.50
2023-03-25T19:45:10.508Z,26.35
2023-03-25T19:47:56.848Z,30.25
2023-03-25T19:50:42.960Z,22.90
2023-03-25T19:53:29.585Z,33.75
2023-03-25T19:56:15.998Z,27.95
2023-03-25T19:59:02.672Z,31.48
2023-03-25T20:01:48.595Z,22.17
2023-03-25T20:04:34.286Z,23.17
2023-03-25T20:07:20.719Z,25.60
2023-03-25T20:10:18.888Z,32.20
2023-03-25T20:13:06.264Z,61.45
2023-03-25T20:15:52.605Z,46.95
2023-03-25T20:18:39.154Z,40.88
2023-03-25T20:21:25.408Z,39.17
2023-03-25T20:24:11.013Z,33.50
2023-03-25T20:26:56.794Z,28.95
2023-03-25T20:29:42.517Z,30.58
2023-03-25T20:32:39.415Z,44.67
2023-03-25T20:35:26.297Z,31.73
2023-03-25T20:38:11.728Z,34.13
2023-03-25T20:40:56.950Z,31.13
2023-03-25T20:43:42.601Z,33.13
2023-03-25T20:46:31.506Z,33.45
2023-03-25T20:49:19.046Z,33.20
2023-03-25T20:52:05.463Z,35.10
2023-03-25T20:54:50.927Z,23.33
2023-03-25T20:57:36.537Z,24.15
2023-03-25T21:00:22.312Z,30.15
2023-03-25T21:03:07.852Z,28.35
2023-03-25T21:06:03.055Z,37.45
2023-03-25T21:08:51.399Z,31.52
2023-03-25T21:11:37.650Z,19.65
2023-03-25T21:14:23.143Z,24.27
2023-03-25T21:17:09.780Z,28.40
2023-03-25T21:19:55.302Z,27.33
2023-03-25T21:22:44.476Z,29.48
2023-03-25T21:25:34.488Z,38.33
2023-03-25T21:28:19.775Z,35.20
2023-03-25T21:31:08.150Z,31.75
2023-03-25T21:33:55.163Z,32.35
2023-03-25T21:36:41.186Z,32.13
2023-03-25T21:39:26.919Z,57.05
2023-03-25T21:42:12.249Z,70.53
2023-03-25T21:44:58.233Z,50.85
2023-03-25T21:47:47.574Z,44.85
2023-03-25T21:50:36.417Z,47.00
2023-03-25T21:53:22.755Z,34.75
2023-03-25T21:56:10.169Z,43.67
2023-03-25T21:58:55.616Z,34.83
2023-03-25T22:01:42.646Z,28.05
2023-03-25T22:04:28.096Z,24.17
2023-03-25T22:07:13.502Z,22.40
2023-03-25T22:09:58.814Z,35.53
2023-03-25T22:12:44.176Z,19.13
2023-03-25T22:15:29.548Z,34.88
2023-03-25T22:18:15.071Z,41.65
2023-03-25T22:21:16.250Z,30.80
2023-03-25T22:24:03.997Z,29.92
2023-03-25T22:26:49.804Z,27.05
2023-03-25T22:29:35.826Z,24.63
2023-03-25T22:32:21.411Z,28.88
2023-03-25T22:35:07.362Z,30.85
2023-03-25T22:37:55.577Z,37.78
2023-03-25T22:40:40.796Z,28.90
2023-03-25T22:43:26.383Z,29.17
2023-03-25T22:46:12.583Z,28.63
2023-03-25T22:48:58.155Z,32.30
2023-03-25T22:51:43.541Z,32.30
2023-03-25T22:54:29.045Z,33.85
2023-03-25T22:57:14.405Z,24.85
2023-03-25T22:59:59.621Z,29.42
2023-03-25T23:02:47.184Z,30.85
2023-03-25T23:05:33.764Z,32.28
2023-03-25T23:08:21.015Z,27.95
2023-03-25T23:11:17.126Z,32.35
2023-03-25T23:14:09.594Z,27.98
2023-03-25T23:16:55.290Z,32.70
2023-03-25T23:19:40.718Z,40.58
2023-03-25T23:22:26.038Z,25.77
2023-03-25T23:25:11.642Z,26.88
2023-03-25T23:27:58.231Z,22.88
2023-03-25T23:30:45.806Z,26.98
2023-03-25T23:33:31.551Z,24.75
2023-03-25T23:36:21.459Z,30.45
2023-03-25T23:39:10.362Z,18.95
2023-03-25T23:41:56.410Z,21.58
2023-03-25T23:44:41.851Z,22.90
2023-03-25T23:47:28.127Z,19.05
2023-03-25T23:50:18.612Z,21.67
2023-03-25T23:53:04.374Z,20.55
2023-03-25T23:55:53.299Z,20.67
2023-03-25T23:58:40.930Z,25.13
